Time;durP1;ratioP1;P1;durP2;ratioP2;P2;SDS_P1;SDS_P2;PMS_P1;PMS_P2;Temp;Humidity;BMP_temperature;BMP_pressure;BME280_temperature;BME280_humidity;BME280_pressure;Samples;Min_cycle;Max_cycle;Signal;HPM_P1;HPM_P2
2023/03/28 16:07:11;;;;;;;8.73;3.70;;;10.20;73.90;;;;;;5122400;27;20346;-61
2023/03/28 16:09:41;;;;;;;8.90;3.92;;;10.00;75.30;;;;;;5106931;28;20031;-61
2023/03/28 16:12:17;;;;;;;8.13;3.50;;;10.00;77.70;;;;;;5120289;28;20555;-61
2023/03/28 16:14:51;;;;;;;8.90;4.13;;;10.00;79.70;;;;;;5087053;28;20399;-62
2023/03/28 16:17:21;;;;;;;7.03;3.90;;;10.00;81.50;;;;;;5100853;28;20109;-61
2023/03/28 16:19:48;;;;;;;7.28;3.25;;;10.00;82.70;;;;;;5128446;28;20094;-61
2023/03/28 16:22:14;;;;;;;10.32;3.22;;;10.00;83.10;;;;;;5128896;28;20019;-61
2023/03/28 16:24:39;;;;;;;9.02;3.40;;;10.00;82.70;;;;;;5115312;28;20099;-60
2023/03/28 16:27:05;;;;;;;7.13;3.28;;;10.00;82.60;;;;;;5088167;28;20064;-62
2023/03/28 16:29:31;;;;;;;9.35;4.78;;;10.00;82.10;;;;;;5088345;28;20082;-62
2023/03/28 16:31:57;;;;;;;9.52;4.72;;;10.00;81.90;;;;;;5096943;28;20036;-60
2023/03/28 16:34:22;;;;;;;7.20;3.40;;;10.00;82.60;;;;;;5088517;28;20035;-60
2023/03/28 16:36:48;;;;;;;7.38;3.22;;;10.00;83.10;;;;;;5087286;28;20040;-60
2023/03/28 16:39:13;;;;;;;4.93;2.58;;;10.00;83.90;;;;;;5089388;28;20486;-60
2023/03/28 16:41:39;;;;;;;6.55;2.55;;;10.00;84.40;;;;;;5089311;28;20048;-60
2023/03/28 16:44:05;;;;;;;8.20;3.90;;;10.00;84.40;;;;;;5069251;28;20452;-61
2023/03/28 16:46:30;;;;;;;9.25;4.20;;;10.00;84.40;;;;;;5089265;28;20545;-60
2023/03/28 16:48:56;;;;;;;7.72;4.20;;;9.90;84.50;;;;;;5088022;28;20503;-60
2023/03/28 16:51:23;;;;;;;7.40;4.30;;;9.90;83.60;;;;;;5087108;28;20033;-61
2023/03/28 16:53:48;;;;;;;7.40;4.05;;;9.90;84.20;;;;;;5102453;28;20047;-60
2023/03/28 16:56:16;;;;;;;10.07;5.40;;;9.90;84.40;;;;;;5107508;28;20067;-61
2023/03/28 16:58:42;;;;;;;10.10;4.53;;;9.80;84.00;;;;;;5105529;28;20122;-60
2023/03/28 17:01:11;;;;;;;8.13;4.63;;;9.80;84.00;;;;;;5097809;28;20032;-60
2023/03/28 17:03:36;;;;;;;6.28;4.15;;;9.80;84.40;;;;;;5095259;28;20043;-61
2023/03/28 17:06:08;;;;;;;6.32;3.90;;;9.70;83.90;;;;;;5091360;28;20527;-58
2023/03/28 17:08:35;;;;;;;6.90;3.67;;;9.70;83.80;;;;;;5087269;28;20070;-59
2023/03/28 17:11:01;;;;;;;7.40;4.22;;;9.70;83.50;;;;;;5089481;28;20048;-60
2023/03/28 17:13:27;;;;;;;7.55;3.90;;;9.60;83.20;;;;;;5088542;28;20028;-60
2023/03/28 17:15:54;;;;;;;8.02;3.88;;;9.60;82.70;;;;;;5104424;28;20028;-59
2023/03/28 17:18:20;;;;;;;7.60;4.18;;;9.60;82.60;;;;;;5112540;28;20028;-60
2023/03/28 17:20:47;;;;;;;6.57;4.05;;;9.50;82.50;;;;;;5112470;28;20098;-61
2023/03/28 17:23:12;;;;;;;9.27;4.65;;;9.50;83.00;;;;;;5112129;28;20383;-60
2023/03/28 17:25:38;;;;;;;7.47;4.75;;;9.50;82.90;;;;;;5111460;28;20038;-61
2023/03/28 17:28:04;;;;;;;8.75;4.53;;;9.50;82.70;;;;;;5107864;28;20027;-61
2023/03/28 17:30:31;;;;;;;8.60;4.35;;;9.40;82.50;;;;;;5092557;28;20031;-62
2023/03/28 17:32:57;;;;;;;8.15;4.22;;;9.40;83.40;;;;;;5090367;28;20089;-62
2023/03/28 17:35:22;;;;;;;9.48;5.25;;;9.40;83.60;;;;;;5092059;28;20028;-60
2023/03/28 17:37:48;;;;;;;9.43;5.65;;;9.40;83.90;;;;;;5089638;28;20545;-61
2023/03/28 17:40:14;;;;;;;10.15;5.18;;;9.40;83.80;;;;;;5090783;28;20852;-61
2023/03/28 17:42:40;;;;;;;9.82;5.40;;;9.30;83.90;;;;;;5088622;28;20384;-61
2023/03/28 17:45:06;;;;;;;10.80;6.78;;;9.30;84.70;;;;;;5071542;28;20024;-60
2023/03/28 17:47:31;;;;;;;9.63;5.85;;;9.30;84.60;;;;;;5088924;28;20036;-61
2023/03/28 17:49:59;;;;;;;9.30;6.03;;;9.30;85.10;;;;;;5091872;28;20081;-60
2023/03/28 17:52:28;;;;;;;9.90;5.50;;;9.20;85.10;;;;;;5091004;28;20028;-61
2023/03/28 17:54:54;;;;;;;6.75;3.50;;;9.20;85.10;;;;;;5091508;28;20050;-61
2023/03/28 17:57:20;;;;;;;6.35;2.85;;;9.20;86.20;;;;;;5085525;28;20032;-60
2023/03/28 17:59:45;;;;;;;7.70;3.20;;;9.20;85.20;;;;;;5078737;28;20020;-61
2023/03/28 18:02:12;;;;;;;4.50;2.40;;;9.20;84.30;;;;;;5054816;28;20039;-59
2023/03/28 18:04:37;;;;;;;7.43;3.03;;;9.10;84.00;;;;;;5070497;28;20009;-60
2023/03/28 18:07:03;;;;;;;5.50;2.83;;;9.00;81.80;;;;;;5070871;28;20048;-60
2023/03/28 18:09:29;;;;;;;4.90;2.45;;;9.00;81.10;;;;;;5070645;28;20027;-59
2023/03/28 18:11:54;;;;;;;6.90;2.13;;;8.90;82.00;;;;;;5071358;28;20522;-60
2023/03/28 18:14:20;;;;;;;4.78;2.33;;;8.90;82.80;;;;;;5070691;28;20032;-60
2023/03/28 18:16:45;;;;;;;5.68;2.38;;;8.80;83.20;;;;;;5073335;28;20031;-59
2023/03/28 18:19:16;;;;;;;4.70;2.40;;;8.80;83.20;;;;;;5090783;28;20023;-59
2023/03/28 18:21:43;;;;;;;3.55;2.17;;;8.80;83.80;;;;;;5091295;28;20056;-60
2023/03/28 18:24:09;;;;;;;5.03;2.13;;;8.80;82.80;;;;;;5089945;28;20032;-60
2023/03/28 18:26:34;;;;;;;6.22;2.00;;;8.80;83.20;;;;;;5091147;28;20037;-59
2023/03/28 18:29:00;;;;;;;3.92;1.70;;;8.80;83.40;;;;;;5089563;28;20379;-59
2023/03/28 18:31:26;;;;;;;3.78;2.10;;;8.80;83.70;;;;;;5090465;28;20403;-60
2023/03/28 18:33:53;;;;;;;4.70;2.28;;;8.80;84.00;;;;;;5072630;28;20043;-59
2023/03/28 18:36:19;;;;;;;7.53;2.53;;;8.80;83.50;;;;;;5090390;28;20097;-60
2023/03/28 18:38:45;;;;;;;5.07;2.30;;;8.80;83.20;;;;;;5090320;28;20672;-60
2023/03/28 18:41:11;;;;;;;3.42;1.85;;;8.80;82.00;;;;;;5071109;28;20043;-60
2023/03/28 18:43:39;;;;;;;3.88;1.98;;;8.80;82.50;;;;;;5056645;28;20099;-60
2023/03/28 18:46:11;;;;;;;4.72;2.20;;;8.70;82.80;;;;;;5090065;28;20087;-60
2023/03/28 18:48:37;;;;;;;5.03;2.15;;;8.80;82.80;;;;;;5087641;28;20031;-60
2023/03/28 18:51:05;;;;;;;6.85;2.50;;;8.70;83.30;;;;;;5089824;28;20036;-60
2023/03/28 18:53:31;;;;;;;5.18;2.00;;;8.70;83.30;;;;;;5090290;28;20121;-60
2023/03/28 18:55:57;;;;;;;5.63;2.25;;;8.70;83.90;;;;;;5089872;28;20391;-60
2023/03/28 18:58:24;;;;;;;7.30;2.25;;;8.70;84.90;;;;;;5086262;28;20024;-59
2023/03/28 19:00:58;;;;;;;6.00;2.30;;;8.70;85.40;;;;;;5073619;28;20368;-60
2023/03/28 19:03:25;;;;;;;4.90;2.40;;;8.70;86.40;;;;;;5069466;28;20040;-60
2023/03/28 19:05:59;;;;;;;5.03;2.20;;;8.70;87.30;;;;;;5067826;28;20486;-60
2023/03/28 19:08:25;;;;;;;5.75;2.30;;;8.60;88.00;;;;;;5063892;28;20592;-59
2023/03/28 19:10:56;;;;;;;2.85;1.58;;;8.60;89.30;;;;;;5071573;28;20036;-60
2023/03/28 19:13:22;;;;;;;2.15;1.80;;;8.50;90.10;;;;;;5081014;28;20388;-62
2023/03/28 19:16:05;;;;;;;5.03;1.90;;;8.40;90.70;;;;;;5069325;28;20082;-60
2023/03/28 19:18:32;;;;;;;5.18;1.73;;;8.40;91.30;;;;;;5069103;28;20476;-59
2023/03/28 19:20:58;;;;;;;4.75;1.75;;;8.30;91.90;;;;;;5070047;28;20078;-62
2023/03/28 19:23:26;;;;;;;3.10;1.77;;;8.20;92.80;;;;;;5069361;28;20021;-61
2023/03/28 19:25:51;;;;;;;3.88;2.03;;;8.20;93.20;;;;;;5069097;28;20132;-59
2023/03/28 19:28:18;;;;;;;5.22;2.63;;;8.10;93.80;;;;;;5069576;28;20074;-60
2023/03/28 19:30:44;;;;;;;3.97;2.60;;;8.10;94.50;;;;;;5069963;28;20481;-60
2023/03/28 19:33:11;;;;;;;4.75;2.45;;;8.00;95.30;;;;;;5050677;28;20029;-59
2023/03/28 19:35:38;;;;;;;4.93;2.67;;;8.00;95.90;;;;;;5070869;28;20052;-60
2023/03/28 19:38:04;;;;;;;4.65;3.05;;;7.90;96.50;;;;;;5069154;28;20127;-59
2023/03/28 19:40:30;;;;;;;9.43;3.72;;;7.90;97.30;;;;;;5068638;28;20443;-60
2023/03/28 19:42:57;;;;;;;7.05;3.30;;;7.90;97.80;;;;;;5080748;28;20032;-60
2023/03/28 19:45:27;;;;;;;6.85;3.40;;;7.90;98.60;;;;;;5089402;28;20032;-59
2023/03/28 19:47:54;;;;;;;5.10;2.63;;;7.80;99.50;;;;;;5070510;28;20099;-59
2023/03/28 19:50:21;;;;;;;2.38;1.70;;;7.70;99.90;;;;;;5077343;28;20027;-58
2023/03/28 19:52:47;;;;;;;3.75;2.67;;;7.70;99.90;;;;;;5071489;28;20025;-60
